createdAt,value
2018-10-06T00:03:20.171Z,99708.66
2018-10-06T00:08:13.533Z,99707.39
2018-10-06T00:13:06.918Z,99700.07
2018-10-06T00:18:00.310Z,99694.42
2018-10-06T00:22:55.656Z,99700.09
2018-10-06T00:27:49.504Z,99693.39
2018-10-06T00:32:44.202Z,99694.55
2018-10-06T00:37:37.588Z,99683.78
2018-10-06T00:42:31.454Z,99691.08
2018-10-06T00:47:24.933Z,99694.80
2018-10-06T00:52:18.206Z,99695.47
2018-10-06T00:57:11.699Z,99689.33
2018-10-06T01:02:05.073Z,99686.88
2018-10-06T01:06:58.451Z,99686.23
2018-10-06T01:11:51.700Z,99684.73
2018-10-06T01:16:45.101Z,99687.45
2018-10-06T01:21:38.882Z,99689.16
2018-10-06T01:26:32.299Z,99685.88
2018-10-06T01:31:26.938Z,99682.13
2018-10-06T01:36:21.061Z,99688.36
2018-10-06T01:41:14.650Z,99695.75
2018-10-06T01:46:08.055Z,99689.12
2018-10-06T01:51:02.524Z,99689.28
2018-10-06T01:55:55.831Z,99683.79
2018-10-06T02:00:49.625Z,99685.28
2018-10-06T02:05:43.026Z,99684.85
2018-10-06T02:10:36.372Z,99681.42
2018-10-06T02:15:30.271Z,99672.22
2018-10-06T02:20:23.625Z,99668.03
2018-10-06T02:25:16.995Z,99669.54
2018-10-06T02:30:11.554Z,99670.45
2018-10-06T02:35:04.712Z,99672.59
2018-10-06T02:39:58.310Z,99659.72
2018-10-06T02:44:51.684Z,99660.60
2018-10-06T02:49:45.039Z,99655.73
2018-10-06T02:54:38.352Z,99656.09
2018-10-06T02:59:31.844Z,99657.90
2018-10-06T03:04:25.118Z,99657.08
2018-10-06T03:09:18.377Z,99655.22
2018-10-06T03:14:11.664Z,99647.09
2018-10-06T03:19:05.102Z,99648.56
2018-10-06T03:23:58.451Z,99644.70
2018-10-06T03:28:51.719Z,99643.27
2018-10-06T03:33:45.050Z,99645.97
2018-10-06T03:38:38.387Z,99638.03
2018-10-06T03:43:31.529Z,99639.48
2018-10-06T03:48:24.702Z,99640.74
2018-10-06T03:53:17.882Z,99626.41
2018-10-06T03:58:11.260Z,99623.70
2018-10-06T04:03:04.414Z,99612.66
2018-10-06T04:07:57.736Z,99616.91
2018-10-06T04:12:51.048Z,99617.03
2018-10-06T04:17:44.262Z,99620.87
2018-10-06T04:22:37.406Z,99619.90
2018-10-06T04:27:30.623Z,99616.77
2018-10-06T04:32:24.117Z,99610.27
2018-10-06T04:37:17.629Z,99609.20
2018-10-06T04:42:10.807Z,99616.53
2018-10-06T04:47:04.046Z,99614.16
2018-10-06T04:51:57.420Z,99610.19
2018-10-06T04:56:50.801Z,99607.64
2018-10-06T05:01:44.153Z,99613.99
2018-10-06T05:06:37.377Z,99619.09
2018-10-06T05:11:30.614Z,99616.37
2018-10-06T05:16:23.856Z,99622.88
2018-10-06T05:21:17.251Z,99626.67
2018-10-06T05:26:10.390Z,99630.88
2018-10-06T05:31:04.618Z,99622.88
2018-10-06T05:35:57.863Z,99624.33
2018-10-06T05:40:51.467Z,99628.30
2018-10-06T05:45:44.769Z,99630.07
2018-10-06T05:50:38.018Z,99633.34
2018-10-06T05:55:31.225Z,99637.52
2018-10-06T06:00:25.012Z,99631.23
2018-10-06T06:05:18.237Z,99630.77
2018-10-06T06:10:12.140Z,99628.25
2018-10-06T06:15:05.693Z,99628.14
2018-10-06T06:19:58.894Z,99631.03
2018-10-06T06:24:52.130Z,99634.54
2018-10-06T06:29:45.300Z,99635.14
2018-10-06T06:34:38.650Z,99639.22
2018-10-06T06:39:31.843Z,99639.48
2018-10-06T06:44:25.312Z,99633.50
2018-10-06T06:49:18.574Z,99633.67
2018-10-06T06:54:11.831Z,99626.91
2018-10-06T06:59:05.174Z,99636.31
2018-10-06T07:03:58.468Z,99617.27
2018-10-06T07:08:51.763Z,99626.80
2018-10-06T07:13:45.165Z,99630.69
2018-10-06T07:18:41.954Z,99641.83
2018-10-06T07:23:35.334Z,99635.44
2018-10-06T07:28:28.859Z,99635.70
2018-10-06T07:33:23.767Z,99636.81
2018-10-06T07:38:17.218Z,99640.33
2018-10-06T07:43:10.399Z,99633.20
2018-10-06T07:48:03.761Z,99632.22
2018-10-06T07:52:57.326Z,99635.93
2018-10-06T07:57:50.565Z,99631.52
2018-10-06T08:02:46.299Z,99625.77
2018-10-06T08:07:39.637Z,99610.92
2018-10-06T08:12:33.034Z,99610.59
2018-10-06T08:17:26.615Z,99602.89
2018-10-06T08:22:19.803Z,99604.94
2018-10-06T08:27:13.299Z,99604.39
2018-10-06T08:32:06.942Z,99596.75
2018-10-06T08:37:00.412Z,99597.91
2018-10-06T08:41:53.935Z,99592.61
2018-10-06T08:46:47.297Z,99596.25
2018-10-06T08:51:40.552Z,99583.61
2018-10-06T08:56:33.923Z,99583.04
2018-10-06T09:01:27.214Z,99580.69
2018-10-06T09:06:20.712Z,99579.38
2018-10-06T09:11:14.211Z,99576.42
2018-10-06T09:16:07.662Z,99568.27
2018-10-06T09:21:00.953Z,99567.81
2018-10-06T09:25:54.118Z,99560.11
2018-10-06T09:30:47.496Z,99549.34
2018-10-06T09:35:40.725Z,99537.02
2018-10-06T09:40:34.076Z,99542.11
2018-10-06T09:45:27.278Z,99530.93
2018-10-06T09:50:20.563Z,99516.28
2018-10-06T09:55:13.779Z,99510.02
2018-10-06T10:00:07.355Z,99505.27
2018-10-06T10:05:09.107Z,99491.21
2018-10-06T10:10:04.752Z,99482.92
2018-10-06T10:14:57.981Z,99474.39
2018-10-06T10:19:51.293Z,99461.92
2018-10-06T10:24:44.527Z,99440.69
2018-10-06T10:29:41.537Z,99442.42
2018-10-06T10:34:34.884Z,99436.08
2018-10-06T10:39:28.316Z,99426.10
2018-10-06T10:44:21.679Z,99409.36
2018-10-06T10:49:14.822Z,99411.58
2018-10-06T10:54:08.027Z,99408.61
2018-10-06T10:59:01.298Z,99399.41
2018-10-06T11:03:54.653Z,99394.94
2018-10-06T11:08:47.758Z,99390.03
2018-10-06T11:13:41.021Z,99388.02
2018-10-06T11:18:34.330Z,99385.25
2018-10-06T11:23:27.646Z,99378.97
2018-10-06T11:28:21.072Z,99367.28
2018-10-06T11:33:14.318Z,99364.84
2018-10-06T11:38:07.745Z,99348.98
2018-10-06T11:43:00.964Z,99347.16
2018-10-06T11:47:54.122Z,99337.39
2018-10-06T11:52:47.292Z,99328.66
2018-10-06T11:57:40.562Z,99318.28
2018-10-06T12:02:33.753Z,99310.72
2018-10-06T12:07:26.976Z,99307.05
2018-10-06T12:12:20.196Z,99311.66
2018-10-06T12:17:13.489Z,99301.43
2018-10-06T12:22:06.774Z,99295.01
2018-10-06T12:27:00.034Z,99296.91
2018-10-06T12:31:53.416Z,99279.22
2018-10-06T12:36:46.700Z,99271.31
2018-10-06T12:41:40.048Z,99266.02
2018-10-06T12:46:33.215Z,99265.95
2018-10-06T12:51:26.534Z,99254.03
2018-10-06T12:56:20.002Z,99251.22
2018-10-06T13:01:13.281Z,99245.16
2018-10-06T13:06:06.565Z,99241.58
2018-10-06T13:11:00.042Z,99230.19
2018-10-06T13:15:53.255Z,99222.28
2018-10-06T13:20:46.434Z,99221.31
2018-10-06T13:25:39.622Z,99215.56
2018-10-06T13:30:32.766Z,99207.20
2018-10-06T13:35:25.945Z,99203.27
2018-10-06T13:40:19.312Z,99196.35
2018-10-06T13:45:12.868Z,99189.20
2018-10-06T13:50:06.006Z,99183.95
2018-10-06T13:54:59.221Z,99180.80
2018-10-06T13:59:52.678Z,99174.16
2018-10-06T14:04:45.804Z,99170.00
2018-10-06T14:09:39.121Z,99176.17
2018-10-06T14:14:32.307Z,99167.85
2018-10-06T14:19:25.633Z,99166.70
2018-10-06T14:24:18.875Z,99165.92
2018-10-06T14:29:12.066Z,99158.18
2018-10-06T14:34:05.652Z,99164.77
2018-10-06T14:38:58.914Z,99163.86
2018-10-06T14:43:53.346Z,99160.06
2018-10-06T14:48:46.590Z,99173.36
2018-10-06T14:53:39.827Z,99169.56
2018-10-06T14:58:33.096Z,99166.57
2018-10-06T15:03:26.300Z,99164.69
2018-10-06T15:08:20.731Z,99171.73
2018-10-06T15:13:13.905Z,99166.80
2018-10-06T15:18:07.303Z,99172.15
2018-10-06T15:23:01.202Z,99176.03
2018-10-06T15:27:54.544Z,99182.07
2018-10-06T15:32:47.915Z,99192.56
2018-10-06T15:37:41.367Z,99185.95
2018-10-06T15:42:34.574Z,99193.23
2018-10-06T15:47:27.896Z,99188.00
2018-10-06T15:52:21.234Z,99191.44
2018-10-06T15:57:14.509Z,99189.48
2018-10-06T16:02:07.666Z,99184.37
2018-10-06T16:07:00.875Z,99189.20
2018-10-06T16:11:54.167Z,99196.56
2018-10-06T16:16:47.541Z,99191.91
2018-10-06T16:21:40.942Z,99204.48
2018-10-06T16:26:34.107Z,99200.70
2018-10-06T16:31:27.425Z,99204.84
2018-10-06T16:36:20.714Z,99208.26
2018-10-06T16:41:14.055Z,99209.39
2018-10-06T16:46:07.619Z,99206.31
2018-10-06T16:51:01.836Z,99204.69
2018-10-06T16:55:55.124Z,99202.63
2018-10-06T17:00:48.402Z,99197.16
2018-10-06T17:05:41.672Z,99196.17
2018-10-06T17:10:34.968Z,99191.60
2018-10-06T17:15:28.572Z,99187.60
2018-10-06T17:20:21.967Z,99194.30
2018-10-06T17:25:15.580Z,99190.75
2018-10-06T17:30:08.921Z,99184.11
2018-10-06T17:35:02.199Z,99181.80
2018-10-06T17:39:55.547Z,99181.47
2018-10-06T17:44:49.216Z,99185.38
2018-10-06T17:49:42.738Z,99181.94
2018-10-06T17:54:36.128Z,99170.63
2018-10-06T17:59:29.950Z,99179.64
2018-10-06T18:04:23.343Z,99183.67
2018-10-06T18:09:16.875Z,99188.67
2018-10-06T18:14:10.302Z,99184.11
2018-10-06T18:19:03.622Z,99183.95
2018-10-06T18:23:57.134Z,99190.53
2018-10-06T18:28:51.429Z,99193.28
2018-10-06T18:33:45.147Z,99193.47
2018-10-06T18:38:38.464Z,99186.44
2018-10-06T18:43:31.934Z,99181.58
2018-10-06T18:48:25.833Z,99187.55
2018-10-06T18:53:19.166Z,99184.87
2018-10-06T18:58:12.755Z,99186.70
2018-10-06T19:03:06.289Z,99187.99
2018-10-06T19:07:59.506Z,99191.60
2018-10-06T19:12:52.989Z,99200.52
2018-10-06T19:17:46.239Z,99192.63
2018-10-06T19:22:39.619Z,99186.64
2018-10-06T19:27:32.922Z,99191.28
2018-10-06T19:32:26.242Z,99187.47
2018-10-06T19:37:19.493Z,99176.89
2018-10-06T19:42:12.829Z,99178.04
2018-10-06T19:47:06.161Z,99171.14
2018-10-06T19:51:59.575Z,99179.64
2018-10-06T19:56:52.723Z,99171.64
2018-10-06T20:01:46.065Z,99164.42
2018-10-06T20:06:39.335Z,99168.86
2018-10-06T20:11:33.498Z,99161.55
2018-10-06T20:16:26.884Z,99153.03
2018-10-06T20:21:20.490Z,99159.91
2018-10-06T20:26:14.205Z,99152.41
2018-10-06T20:31:08.086Z,99159.28
2018-10-06T20:36:01.748Z,99145.06
2018-10-06T20:40:55.484Z,99150.45
2018-10-06T20:45:51.089Z,99127.83
2018-10-06T20:50:45.855Z,99122.07
2018-10-06T20:55:40.330Z,99116.08
2018-10-06T21:00:33.978Z,99117.95
2018-10-06T21:05:27.985Z,99107.28
2018-10-06T21:10:23.201Z,99102.09
2018-10-06T21:15:16.427Z,99096.25
2018-10-06T21:20:10.771Z,99081.81
2018-10-06T21:25:04.257Z,99070.38
2018-10-06T21:29:57.492Z,99066.14
2018-10-06T21:34:50.817Z,99060.66
2018-10-06T21:39:44.081Z,99049.42
2018-10-06T21:44:37.404Z,99044.06
2018-10-06T21:49:30.786Z,99034.45
2018-10-06T21:54:24.000Z,99033.78
2018-10-06T21:59:17.376Z,99032.70
2018-10-06T22:04:10.615Z,99030.22
2018-10-06T22:09:04.053Z,99032.03
2018-10-06T22:13:57.327Z,99035.58
2018-10-06T22:18:50.718Z,99031.10
2018-10-06T22:23:44.069Z,99026.49
2018-10-06T22:28:37.311Z,99023.63
2018-10-06T22:33:30.642Z,99021.41
2018-10-06T22:38:23.966Z,99022.63
2018-10-06T22:43:17.386Z,99021.36
2018-10-06T22:48:10.731Z,99021.88
2018-10-06T22:53:04.095Z,99023.42
2018-10-06T22:57:57.406Z,99018.86
2018-10-06T23:02:50.624Z,99010.75
2018-10-06T23:07:43.974Z,99004.72
2018-10-06T23:12:37.296Z,98999.45
2018-10-06T23:17:30.515Z,98996.11
2018-10-06T23:22:24.005Z,98990.82
2018-10-06T23:27:17.169Z,98998.77
2018-10-06T23:32:10.310Z,98988.83
2018-10-06T23:37:03.507Z,98981.06
2018-10-06T23:41:56.747Z,98982.98
2018-10-06T23:46:50.070Z,98980.31
2018-10-06T23:51:43.423Z,98972.23
2018-10-06T23:56:36.592Z,98970.26
